createdAt,value
2017-12-13T00:01:33.606Z,66.80
2017-12-13T00:04:01.218Z,67.00
2017-12-13T00:06:28.801Z,66.80
2017-12-13T00:08:56.398Z,67.00
2017-12-13T00:11:23.969Z,66.80
2017-12-13T00:13:51.553Z,66.70
2017-12-13T00:16:19.178Z,66.90
2017-12-13T00:18:46.768Z,66.10
2017-12-13T00:21:14.333Z,66.70
2017-12-13T00:23:41.918Z,67.10
2017-12-13T00:26:09.484Z,66.60
2017-12-13T00:28:37.070Z,66.90
2017-12-13T00:31:04.638Z,66.30
2017-12-13T00:33:32.239Z,66.10
2017-12-13T00:35:59.831Z,66.20
2017-12-13T00:38:28.162Z,66.00
2017-12-13T00:40:55.757Z,65.90
2017-12-13T00:43:23.335Z,66.90
2017-12-13T00:45:50.951Z,66.60
2017-12-13T00:48:18.517Z,66.30
2017-12-13T00:50:46.110Z,65.90
2017-12-13T00:53:14.443Z,65.50
2017-12-13T00:55:42.051Z,65.40
2017-12-13T00:58:09.620Z,66.20
2017-12-13T01:00:37.214Z,67.10
2017-12-13T01:03:04.779Z,67.10
2017-12-13T01:05:32.376Z,66.70
2017-12-13T01:08:00.701Z,67.10
2017-12-13T01:10:28.306Z,67.10
2017-12-13T01:12:55.873Z,66.50
2017-12-13T01:15:23.465Z,66.30
2017-12-13T01:17:51.044Z,66.40
2017-12-13T01:20:18.638Z,67.20
2017-12-13T01:22:46.216Z,66.70
2017-12-13T01:25:13.815Z,66.40
2017-12-13T01:27:41.385Z,66.40
2017-12-13T01:30:08.983Z,66.20
2017-12-13T01:32:36.554Z,66.30
2017-12-13T01:35:04.155Z,66.20
2017-12-13T01:37:31.730Z,65.80
2017-12-13T01:39:59.331Z,65.60
2017-12-13T01:42:27.674Z,66.20
2017-12-13T01:44:55.261Z,66.20
2017-12-13T01:47:22.835Z,66.20
2017-12-13T01:49:50.406Z,66.00
2017-12-13T01:52:17.994Z,65.70
2017-12-13T01:54:45.562Z,65.50
2017-12-13T01:57:13.170Z,66.00
2017-12-13T01:59:40.745Z,65.90
2017-12-13T02:02:08.337Z,66.30
2017-12-13T02:04:35.911Z,66.30
2017-12-13T02:07:03.507Z,66.80
2017-12-13T02:09:31.071Z,66.30
2017-12-13T02:11:58.662Z,65.90
2017-12-13T02:14:26.378Z,66.30
2017-12-13T02:16:54.729Z,66.10
2017-12-13T02:19:22.294Z,66.00
2017-12-13T02:21:49.882Z,66.10
2017-12-13T02:24:18.217Z,66.10
2017-12-13T02:26:45.818Z,66.10
2017-12-13T02:29:14.151Z,65.80
2017-12-13T02:31:41.754Z,65.80
2017-12-13T02:34:10.090Z,65.70
2017-12-13T02:36:37.706Z,65.70
2017-12-13T02:39:05.279Z,65.60
2017-12-13T02:41:32.871Z,67.10
2017-12-13T02:44:00.438Z,66.60
2017-12-13T02:46:28.020Z,66.20
2017-12-13T02:48:55.595Z,66.80
2017-12-13T02:51:23.188Z,66.20
2017-12-13T02:53:50.778Z,66.70
2017-12-13T02:56:18.368Z,66.10
2017-12-13T02:58:46.710Z,65.90
2017-12-13T03:01:14.282Z,65.90
2017-12-13T03:03:41.876Z,67.00
2017-12-13T03:06:09.443Z,66.50
2017-12-13T03:08:37.039Z,66.20
2017-12-13T03:11:04.615Z,66.10
2017-12-13T03:13:32.974Z,66.10
2017-12-13T03:16:00.556Z,66.00
2017-12-13T03:18:28.914Z,66.40
2017-12-13T03:20:56.482Z,66.30
2017-12-13T03:23:24.071Z,66.10
2017-12-13T03:25:52.408Z,65.80
2017-12-13T03:28:20.004Z,65.80
2017-12-13T03:30:47.578Z,65.80
2017-12-13T03:33:15.170Z,64.80
2017-12-13T03:35:42.742Z,65.30
2017-12-13T03:38:10.335Z,65.60
2017-12-13T03:40:38.675Z,65.40
2017-12-13T03:43:06.272Z,65.40
2017-12-13T03:45:34.602Z,64.80
2017-12-13T03:48:02.347Z,64.70
2017-12-13T03:50:29.936Z,64.60
2017-12-13T03:52:57.554Z,64.10
2017-12-13T03:55:25.123Z,64.40
2017-12-13T03:57:52.716Z,64.40
2017-12-13T04:00:20.298Z,64.70
2017-12-13T04:02:48.659Z,64.70
2017-12-13T04:05:16.226Z,64.50
2017-12-13T04:07:43.840Z,64.40
2017-12-13T04:10:11.407Z,64.40
2017-12-13T04:12:39.003Z,64.70
2017-12-13T04:15:06.586Z,65.10
2017-12-13T04:17:34.950Z,65.30
2017-12-13T04:20:03.287Z,65.50
2017-12-13T04:22:30.879Z,65.40
2017-12-13T04:24:58.445Z,65.50
2017-12-13T04:27:26.780Z,65.10
2017-12-13T04:29:54.375Z,65.10
2017-12-13T04:32:22.007Z,64.90
2017-12-13T04:34:49.602Z,64.70
2017-12-13T04:37:17.970Z,65.10
2017-12-13T04:39:45.573Z,65.10
2017-12-13T04:42:13.134Z,65.30
2017-12-13T04:44:40.730Z,65.30
2017-12-13T04:47:08.292Z,65.40
2017-12-13T04:49:35.878Z,65.30
2017-12-13T04:52:04.216Z,65.40
2017-12-13T04:54:31.826Z,65.40
2017-12-13T04:56:59.395Z,65.50
2017-12-13T04:59:26.992Z,65.50
2017-12-13T05:01:54.561Z,65.20
2017-12-13T05:04:22.158Z,65.10
2017-12-13T05:06:50.498Z,65.00
2017-12-13T05:09:18.098Z,64.90
2017-12-13T05:11:45.690Z,65.40
2017-12-13T05:14:13.290Z,65.50
2017-12-13T05:16:40.860Z,65.50
2017-12-13T05:19:08.495Z,65.50
2017-12-13T05:21:36.070Z,65.30
2017-12-13T05:24:03.678Z,65.10
2017-12-13T05:26:31.251Z,65.30
2017-12-13T05:28:58.865Z,65.40
2017-12-13T05:31:27.215Z,65.80
2017-12-13T05:33:54.794Z,65.70
2017-12-13T05:36:22.390Z,65.50
2017-12-13T05:38:49.965Z,65.10
2017-12-13T05:41:17.566Z,65.30
2017-12-13T05:43:45.130Z,65.00
2017-12-13T05:46:12.717Z,65.70
2017-12-13T05:48:40.287Z,64.70
2017-12-13T05:51:07.886Z,65.30
2017-12-13T05:53:35.454Z,65.10
2017-12-13T05:56:03.071Z,65.10
2017-12-13T05:58:30.639Z,64.70
2017-12-13T06:00:58.236Z,65.30
2017-12-13T06:03:25.822Z,65.40
2017-12-13T06:05:53.422Z,64.90
2017-12-13T06:08:21.767Z,65.20
2017-12-13T06:10:49.355Z,65.10
2017-12-13T06:13:16.914Z,65.50
2017-12-13T06:15:44.502Z,65.60
2017-12-13T06:18:12.071Z,65.10
2017-12-13T06:20:39.657Z,66.10
2017-12-13T06:23:07.234Z,65.50
2017-12-13T06:25:34.821Z,65.80
2017-12-13T06:28:02.394Z,66.20
2017-12-13T06:30:29.982Z,65.40
2017-12-13T06:32:57.557Z,65.20
2017-12-13T06:35:25.154Z,65.00
2017-12-13T06:37:52.731Z,65.80
2017-12-13T06:40:20.302Z,65.50
2017-12-13T06:42:47.904Z,65.40
2017-12-13T06:45:15.515Z,65.50
2017-12-13T06:47:43.096Z,65.90
2017-12-13T06:50:11.454Z,65.70
2017-12-13T06:52:39.045Z,65.70
2017-12-13T06:55:06.608Z,65.50
2017-12-13T06:57:34.210Z,65.30
2017-12-13T07:00:01.798Z,65.40
2017-12-13T07:02:29.390Z,65.20
2017-12-13T07:04:56.954Z,65.10
2017-12-13T07:07:24.585Z,65.60
2017-12-13T07:09:52.155Z,65.00
2017-12-13T07:12:19.751Z,64.80
2017-12-13T07:14:47.315Z,65.10
2017-12-13T07:17:14.935Z,65.10
2017-12-13T07:19:43.265Z,65.30
2017-12-13T07:22:10.855Z,65.30
2017-12-13T07:24:38.426Z,65.20
2017-12-13T07:27:06.799Z,65.60
2017-12-13T07:29:35.150Z,65.90
2017-12-13T07:32:02.743Z,65.90
2017-12-13T07:34:31.080Z,66.30
2017-12-13T07:36:58.679Z,66.20
2017-12-13T07:39:27.010Z,65.50
2017-12-13T07:41:55.482Z,65.50
2017-12-13T07:44:23.046Z,66.50
2017-12-13T07:46:50.637Z,65.90
2017-12-13T07:49:18.215Z,66.10
2017-12-13T07:51:46.599Z,65.90
2017-12-13T07:54:14.192Z,65.80
2017-12-13T07:56:41.784Z,65.30
2017-12-13T07:59:09.354Z,66.10
2017-12-13T08:01:37.718Z,66.30
2017-12-13T08:04:05.310Z,66.30
2017-12-13T08:06:32.869Z,66.00
2017-12-13T08:09:00.477Z,66.50
2017-12-13T08:11:28.047Z,65.90
2017-12-13T08:13:55.645Z,66.70
2017-12-13T08:16:23.982Z,67.00
2017-12-13T08:18:51.583Z,67.00
2017-12-13T08:21:19.151Z,66.90
2017-12-13T08:23:46.739Z,66.60
2017-12-13T08:26:14.308Z,67.00
2017-12-13T08:28:41.902Z,66.20
2017-12-13T08:31:10.250Z,68.30
2017-12-13T08:33:37.841Z,68.30
2017-12-13T08:36:06.196Z,72.30
2017-12-13T08:38:33.788Z,72.20
2017-12-13T08:41:02.171Z,70.40
2017-12-13T08:43:30.534Z,71.70
2017-12-13T08:45:58.102Z,71.70
2017-12-13T08:48:26.458Z,69.60
2017-12-13T08:50:54.049Z,69.40
2017-12-13T08:53:21.644Z,68.20
2017-12-13T08:55:49.214Z,67.80
2017-12-13T08:58:16.810Z,67.60
2017-12-13T09:00:44.378Z,67.10
2017-12-13T09:03:12.741Z,66.40
2017-12-13T09:05:41.079Z,65.00
2017-12-13T09:08:08.669Z,64.80
2017-12-13T09:10:36.250Z,63.10
2017-12-13T09:13:04.814Z,62.90
2017-12-13T09:15:32.420Z,62.90
2017-12-13T09:17:59.994Z,63.00
2017-12-13T09:20:27.587Z,61.40
2017-12-13T09:22:55.164Z,61.80
2017-12-13T09:25:23.518Z,63.60
2017-12-13T09:27:51.090Z,63.60
2017-12-13T09:30:19.455Z,61.80
2017-12-13T09:32:47.018Z,61.70
2017-12-13T09:35:14.605Z,60.60
2017-12-13T09:37:42.934Z,60.00
2017-12-13T09:40:10.530Z,60.50
2017-12-13T09:42:38.875Z,59.20
2017-12-13T09:45:06.483Z,59.80
2017-12-13T09:47:34.063Z,59.80
2017-12-13T09:50:01.651Z,59.50
2017-12-13T09:52:29.217Z,60.00
2017-12-13T09:54:56.826Z,57.80
2017-12-13T09:57:24.423Z,56.20
2017-12-13T09:59:52.028Z,57.40
2017-12-13T10:02:20.370Z,55.20
2017-12-13T10:04:48.105Z,55.20
2017-12-13T10:07:15.674Z,52.30
2017-12-13T10:09:43.262Z,52.60
2017-12-13T10:12:10.843Z,54.40
2017-12-13T10:14:39.204Z,52.10
2017-12-13T10:17:06.778Z,52.20
2017-12-13T10:19:35.114Z,48.80
2017-12-13T10:22:02.710Z,48.80
2017-12-13T10:24:31.055Z,51.40
2017-12-13T10:26:58.654Z,51.30
2017-12-13T10:29:26.234Z,49.40
2017-12-13T10:31:53.823Z,51.00
2017-12-13T10:34:21.394Z,50.30
2017-12-13T10:36:48.986Z,50.30
2017-12-13T10:39:17.317Z,46.80
2017-12-13T10:41:44.913Z,46.90
2017-12-13T10:44:12.474Z,49.70
2017-12-13T10:46:40.081Z,49.60
2017-12-13T10:49:07.655Z,50.30
2017-12-13T10:51:35.263Z,48.60
2017-12-13T10:54:03.611Z,47.30
2017-12-13T10:56:31.206Z,47.20
2017-12-13T10:58:58.774Z,49.00
2017-12-13T11:01:26.372Z,51.20
2017-12-13T11:03:53.957Z,50.70
2017-12-13T11:06:21.563Z,49.10
2017-12-13T11:08:49.144Z,45.70
2017-12-13T11:11:16.755Z,48.00
2017-12-13T11:13:45.095Z,44.40
2017-12-13T11:16:12.686Z,44.20
2017-12-13T11:18:41.031Z,47.80
2017-12-13T11:21:08.638Z,47.70
2017-12-13T11:23:36.255Z,46.40
2017-12-13T11:26:03.871Z,46.30
2017-12-13T11:28:31.444Z,48.80
2017-12-13T11:30:59.054Z,48.30
2017-12-13T11:33:26.670Z,48.80
2017-12-13T11:35:54.272Z,50.90
2017-12-13T11:38:21.866Z,50.20
2017-12-13T11:40:49.436Z,48.20
2017-12-13T11:43:17.055Z,49.10
2017-12-13T11:45:45.400Z,50.20
2017-12-13T11:48:12.989Z,50.20
2017-12-13T11:50:40.563Z,49.10
2017-12-13T11:53:08.920Z,49.60
2017-12-13T11:55:36.488Z,49.60
2017-12-13T11:58:04.846Z,52.30
2017-12-13T12:00:32.408Z,52.20
2017-12-13T12:02:59.998Z,51.30
2017-12-13T12:05:28.362Z,45.90
2017-12-13T12:07:55.951Z,45.90
2017-12-13T12:10:23.524Z,47.40
2017-12-13T12:12:51.128Z,49.30
2017-12-13T12:15:18.694Z,47.60
2017-12-13T12:17:46.332Z,48.80
2017-12-13T12:20:13.894Z,51.10
2017-12-13T12:22:41.487Z,50.70
2017-12-13T12:25:09.838Z,51.70
2017-12-13T12:27:37.444Z,51.70
2017-12-13T12:30:05.025Z,50.30
2017-12-13T12:33:28.046Z,51.70
2017-12-13T12:35:55.628Z,49.80
2017-12-13T12:38:23.225Z,50.50
2017-12-13T12:40:50.813Z,52.20
2017-12-13T12:43:19.151Z,50.20
2017-12-13T12:45:46.746Z,50.10
2017-12-13T12:48:15.081Z,49.00
2017-12-13T12:50:43.923Z,49.50
2017-12-13T12:53:11.486Z,48.10
2017-12-13T12:55:39.846Z,48.90
2017-12-13T12:58:08.187Z,49.00
2017-12-13T13:00:35.791Z,48.90
2017-12-13T13:03:03.350Z,48.30
2017-12-13T13:05:31.711Z,48.00
2017-12-13T13:07:59.282Z,48.00
2017-12-13T13:10:27.634Z,48.10
2017-12-13T13:12:55.211Z,47.90
2017-12-13T13:15:22.848Z,49.30
2017-12-13T13:17:50.418Z,49.60
2017-12-13T13:20:18.018Z,48.30
2017-12-13T13:22:45.587Z,48.50
2017-12-13T13:25:13.174Z,48.80
2017-12-13T13:27:40.742Z,49.60
2017-12-13T13:30:08.334Z,48.90
2017-12-13T13:32:35.903Z,48.40
2017-12-13T13:35:03.545Z,48.60
2017-12-13T13:37:31.109Z,48.00
2017-12-13T13:39:58.704Z,48.00
2017-12-13T13:42:26.272Z,49.80
2017-12-13T13:44:53.862Z,49.10
2017-12-13T13:47:21.427Z,49.10
2017-12-13T13:49:48.998Z,50.30
2017-12-13T13:52:16.585Z,52.60
2017-12-13T13:54:44.151Z,52.80
2017-12-13T13:57:11.786Z,53.30
2017-12-13T13:59:40.122Z,55.20
2017-12-13T14:02:07.757Z,55.00
2017-12-13T14:04:35.335Z,55.10
2017-12-13T14:07:02.977Z,55.40
2017-12-13T14:09:30.547Z,55.40
2017-12-13T14:11:58.200Z,56.30
2017-12-13T14:14:25.766Z,56.50
2017-12-13T14:16:54.170Z,58.20
2017-12-13T14:19:21.757Z,58.20
2017-12-13T14:22:19.168Z,58.80
2017-12-13T14:24:46.775Z,59.00
2017-12-13T14:27:14.361Z,59.60
2017-12-13T14:29:41.927Z,60.60
2017-12-13T14:32:09.604Z,60.40
2017-12-13T14:34:37.182Z,60.60
2017-12-13T14:37:04.833Z,59.70
2017-12-13T14:39:32.397Z,61.10
2017-12-13T14:42:00.005Z,60.70
2017-12-13T14:44:27.612Z,60.00
2017-12-13T14:46:55.187Z,61.00
2017-12-13T14:49:22.826Z,60.90
2017-12-13T14:51:50.404Z,61.20
2017-12-13T14:54:18.000Z,62.10
2017-12-13T14:56:46.385Z,60.90
2017-12-13T14:59:14.755Z,61.10
2017-12-13T15:01:43.144Z,62.30
2017-12-13T15:04:11.138Z,62.20
2017-12-13T15:06:39.604Z,62.30
2017-12-13T15:09:07.428Z,62.20
2017-12-13T15:11:35.146Z,63.40
2017-12-13T15:14:03.471Z,63.10
2017-12-13T15:16:31.047Z,63.00
2017-12-13T15:18:58.642Z,62.40
2017-12-13T15:21:26.213Z,64.10
2017-12-13T15:23:53.825Z,63.20
2017-12-13T15:26:21.478Z,63.30
2017-12-13T15:28:49.075Z,63.80
2017-12-13T15:31:16.676Z,63.70
2017-12-13T15:33:44.409Z,62.60
2017-12-13T15:36:12.090Z,63.50
2017-12-13T15:38:39.872Z,64.80
2017-12-13T15:41:07.601Z,64.80
2017-12-13T15:43:35.318Z,64.60
2017-12-13T15:46:03.812Z,65.10
2017-12-13T15:48:31.445Z,65.00
2017-12-13T15:50:59.808Z,66.40
2017-12-13T15:53:27.394Z,66.40
2017-12-13T15:55:55.805Z,65.50
2017-12-13T15:58:23.382Z,65.50
2017-12-13T16:00:51.016Z,66.40
2017-12-13T16:03:18.590Z,64.90
2017-12-13T16:05:46.988Z,65.40
2017-12-13T16:08:14.597Z,65.40
2017-12-13T16:10:43.002Z,65.90
2017-12-13T16:13:10.608Z,65.90
2017-12-13T16:15:38.212Z,66.10
2017-12-13T16:18:05.852Z,65.90
2017-12-13T16:20:33.465Z,66.50
2017-12-13T16:23:01.098Z,67.20
2017-12-13T16:25:28.688Z,66.10
2017-12-13T16:27:56.324Z,66.00
2017-12-13T16:30:23.891Z,66.20
2017-12-13T16:32:51.498Z,66.70
2017-12-13T16:35:19.877Z,66.10
2017-12-13T16:37:48.276Z,67.40
2017-12-13T16:40:15.889Z,67.40
2017-12-13T16:42:43.529Z,67.00
2017-12-13T16:45:11.145Z,66.40
2017-12-13T16:47:38.739Z,65.70
2017-12-13T16:50:06.348Z,67.00
2017-12-13T16:52:33.976Z,66.70
2017-12-13T16:55:01.588Z,67.20
2017-12-13T16:57:29.186Z,67.90
2017-12-13T16:59:56.802Z,67.00
2017-12-13T17:02:25.197Z,66.30
2017-12-13T17:04:52.838Z,66.30
2017-12-13T17:07:20.446Z,67.20
2017-12-13T17:09:48.081Z,68.00
2017-12-13T17:12:15.710Z,67.20
2017-12-13T17:14:44.071Z,68.00
2017-12-13T17:17:11.680Z,68.00
2017-12-13T17:19:39.312Z,68.40
2017-12-13T17:22:07.688Z,69.50
2017-12-13T17:24:36.089Z,68.90
2017-12-13T17:27:03.719Z,68.80
2017-12-13T17:29:31.349Z,69.70
2017-12-13T17:31:58.964Z,69.50
2017-12-13T17:34:26.596Z,69.00
2017-12-13T17:36:54.166Z,69.60
2017-12-13T17:39:22.556Z,69.60
2017-12-13T17:41:50.164Z,69.60
2017-12-13T17:44:17.758Z,68.50
2017-12-13T17:46:45.322Z,70.10
2017-12-13T17:49:13.737Z,69.60
2017-12-13T17:51:41.316Z,69.60
2017-12-13T17:54:08.963Z,70.50
2017-12-13T17:56:36.576Z,70.00
2017-12-13T17:59:04.213Z,69.50
2017-12-13T18:01:34.801Z,69.10
2017-12-13T18:04:02.382Z,69.50
2017-12-13T18:06:31.506Z,69.50
2017-12-13T18:08:59.141Z,68.90
2017-12-13T18:11:26.760Z,69.10
2017-12-13T18:13:54.405Z,69.80
2017-12-13T18:16:22.784Z,69.60
2017-12-13T18:18:51.153Z,69.30
2017-12-13T18:21:18.766Z,69.20
2017-12-13T18:23:46.372Z,69.70
2017-12-13T18:26:14.164Z,69.40
2017-12-13T18:28:41.812Z,70.00
2017-12-13T18:31:11.516Z,69.70
2017-12-13T18:33:39.171Z,69.70
2017-12-13T18:36:06.812Z,69.50
2017-12-13T18:38:34.442Z,69.10
2017-12-13T18:41:02.048Z,69.30
2017-12-13T18:43:30.451Z,69.10
2017-12-13T18:45:58.098Z,69.00
2017-12-13T18:48:26.485Z,69.00
2017-12-13T18:50:54.843Z,68.50
2017-12-13T18:53:22.461Z,68.40
2017-12-13T18:55:50.103Z,69.20
2017-12-13T18:58:17.727Z,69.00
2017-12-13T19:00:45.359Z,68.60
2017-12-13T19:03:12.977Z,69.10
2017-12-13T19:05:40.609Z,69.40
2017-12-13T19:08:08.232Z,69.60
2017-12-13T19:10:35.863Z,69.20
2017-12-13T19:13:03.477Z,69.20
2017-12-13T19:15:31.138Z,69.30
2017-12-13T19:17:58.771Z,68.90
2017-12-13T19:20:26.384Z,68.80
2017-12-13T19:22:54.025Z,68.80
2017-12-13T19:25:21.710Z,68.90
2017-12-13T19:27:49.411Z,68.40
2017-12-13T19:30:17.415Z,68.80
2017-12-13T19:32:45.948Z,70.00
2017-12-13T19:35:13.552Z,70.00
2017-12-13T19:37:41.201Z,69.10
2017-12-13T19:40:08.854Z,69.20
2017-12-13T19:42:36.500Z,69.20
2017-12-13T19:45:04.129Z,69.50
2017-12-13T19:47:31.765Z,69.60
2017-12-13T19:49:59.386Z,69.40
2017-12-13T19:52:27.048Z,69.20
2017-12-13T19:54:54.669Z,69.50
2017-12-13T19:57:22.323Z,69.80
2017-12-13T19:59:50.701Z,69.20
2017-12-13T20:02:19.111Z,69.80
2017-12-13T20:04:46.729Z,69.70
2017-12-13T20:07:14.345Z,70.10
2017-12-13T20:09:41.984Z,70.70
2017-12-13T20:12:10.372Z,70.30
2017-12-13T20:14:38.008Z,70.30
2017-12-13T20:17:05.639Z,70.00
2017-12-13T20:19:33.239Z,70.40
2017-12-13T20:22:00.848Z,70.00
2017-12-13T20:24:28.480Z,71.10
2017-12-13T20:26:56.118Z,70.50
2017-12-13T20:29:23.711Z,70.20
2017-12-13T20:31:51.334Z,70.40
2017-12-13T20:34:19.870Z,70.40
2017-12-13T20:36:47.490Z,70.60
2017-12-13T20:39:15.128Z,70.00
2017-12-13T20:41:43.509Z,70.10
2017-12-13T20:44:11.107Z,70.10
2017-12-13T20:46:38.682Z,69.60
2017-12-13T20:49:06.334Z,69.60
2017-12-13T20:51:33.955Z,69.60
2017-12-13T20:54:01.593Z,71.00
2017-12-13T20:56:29.983Z,70.60
2017-12-13T20:58:57.621Z,70.60
2017-12-13T21:01:26.008Z,71.60
2017-12-13T21:03:54.430Z,71.30
2017-12-13T21:06:21.994Z,71.30
2017-12-13T21:08:49.608Z,72.00
2017-12-13T21:11:18.014Z,72.00
2017-12-13T21:13:45.630Z,71.90
2017-12-13T21:16:13.264Z,71.50
2017-12-13T21:18:41.095Z,71.50
2017-12-13T21:21:08.782Z,70.90
2017-12-13T21:23:36.892Z,71.60
2017-12-13T21:26:04.557Z,71.60
2017-12-13T21:28:32.951Z,73.10
2017-12-13T21:31:01.364Z,72.90
2017-12-13T21:33:28.977Z,72.90
2017-12-13T21:35:57.389Z,71.30
2017-12-13T21:38:24.955Z,71.30
2017-12-13T21:40:52.611Z,71.40
2017-12-13T21:43:21.697Z,70.90
2017-12-13T21:45:49.386Z,70.90
2017-12-13T21:48:16.981Z,71.10
2017-12-13T21:50:44.768Z,71.10
2017-12-13T21:53:14.465Z,73.10
2017-12-13T21:55:54.500Z,72.40
2017-12-13T21:58:23.225Z,72.30
2017-12-13T22:00:50.856Z,71.90
2017-12-13T22:03:28.070Z,71.90
2017-12-13T22:06:03.473Z,71.70
2017-12-13T22:08:41.879Z,71.30
2017-12-13T22:11:10.365Z,72.10
2017-12-13T22:13:38.942Z,72.40
2017-12-13T22:16:06.538Z,72.30
2017-12-13T22:18:34.920Z,71.80
2017-12-13T22:21:03.374Z,72.00
2017-12-13T22:23:31.005Z,72.00
2017-12-13T22:25:58.617Z,72.30
2017-12-13T22:28:27.014Z,72.10
2017-12-13T22:30:54.619Z,72.10
2017-12-13T22:33:22.250Z,72.70
2017-12-13T22:35:49.852Z,72.20
2017-12-13T22:38:17.438Z,72.70
2017-12-13T22:40:45.053Z,71.90
2017-12-13T22:43:12.685Z,71.90
2017-12-13T22:45:40.292Z,72.30
2017-12-13T22:48:07.942Z,72.40
2017-12-13T22:50:35.553Z,72.90
2017-12-13T22:53:03.134Z,72.90
2017-12-13T22:55:30.752Z,73.70
2017-12-13T22:57:59.156Z,73.30
2017-12-13T23:00:38.528Z,73.30
2017-12-13T23:03:06.169Z,73.50
2017-12-13T23:05:33.785Z,73.40
2017-12-13T23:08:02.137Z,72.80
2017-12-13T23:10:29.743Z,72.80
2017-12-13T23:12:57.368Z,72.60
2017-12-13T23:15:24.990Z,71.90
2017-12-13T23:17:52.558Z,72.40
2017-12-13T23:20:20.170Z,72.20
2017-12-13T23:22:47.817Z,71.90
2017-12-13T23:25:15.380Z,71.80
2017-12-13T23:27:43.719Z,71.70
2017-12-13T23:30:11.311Z,71.60
2017-12-13T23:32:39.651Z,71.70
2017-12-13T23:35:07.243Z,71.70
2017-12-13T23:37:34.807Z,71.50
2017-12-13T23:40:03.158Z,71.50
2017-12-13T23:42:30.727Z,71.40
2017-12-13T23:44:58.331Z,71.50
2017-12-13T23:47:25.900Z,71.40
2017-12-13T23:49:53.491Z,71.30
2017-12-13T23:52:21.058Z,71.30
2017-12-13T23:54:48.651Z,71.10
2017-12-13T23:57:16.238Z,71.30
2017-12-13T23:59:43.826Z,71.80
